Frey Ranch - Fallon, Nevada Weather observations

Data are for observation ending at time listed.
 Day   Time    Ave.   Ave.  Ave.  Vector   Max.   Stn.    Total    Solar   Ave.  
  of    of     Air    Rel.  Wind   Wind    Wind   Baro.  Precip.   Rad.    Soil  
Year   Day     Temp.  Hum.  Speed  Dir.    Gust   Pres.                    Temp. 
2015   (PST)    F      %     mph   deg.    mph     mb.     in.     W/m2     F   
------------------------------------------------------------------------------
  89   13:50   81.2     6    2.5     7      5.0   999.0    0.00     548    59.1
  89   14:00   81.9     6    2.8    86      7.1   999.0    0.00     564    59.2
  89   14:10   81.7     6    4.8   153      8.7   999.0    0.00     499    59.3
  89   14:20   82.2     6    3.2   156      7.6   999.0    0.00     653    59.3
  89   14:30   82.9     6    3.8   186      9.6   999.0    0.00     503    59.4
  89   14:40   82.6     6    1.8   241      6.8   999.0    0.00     488    59.5
  89   14:50   82.8     6    2.5    13      4.8   999.0    0.00     476    59.6
  89   15:00   83.3     6    2.0    79      4.2   999.0    0.00     539    59.7
  89   15:10   82.1     6    3.5    50      7.2   999.0    0.00     329    59.8
  89   15:20   81.0     7    3.0   347      6.7   999.0    0.00     223    59.8
  89   15:30   80.6     7    3.5   334      7.1   999.0    0.00     204    59.9
  89   15:40   80.3     7    2.9   342      4.7   999.0    0.00     245    60.0
  89   15:50   81.0     7    2.0    10      4.3   999.0    0.00     215    60.1
  89   16:00   81.2     7    1.5    31      3.5   999.0    0.00     245    60.2
  89   16:10   82.3     6    1.7    14      5.4   999.0    0.00     254    60.3
  89   16:20   81.7     6    2.4   358      4.9   999.0    0.00     249    60.4
  89   16:30   81.4     7    2.0     9      4.2   999.0    0.00     149    60.5
  89   16:40   79.6     7    1.5    11      3.8   999.0    0.00      66    60.5
  89   16:50   77.7     8    0.7     6      2.9   999.0    0.00      40    60.6
  89   17:00   76.4     8    0.7    59      2.3   999.0    0.00      22    60.7
  89   17:10   74.6     8    0.4    51      1.6   999.0    0.00       9    60.8
  89   17:20   75.1     8    2.3     2      7.9   999.0    0.00       2    60.9
  89   17:30   73.1    12    7.9   277     11.2   999.0    0.00       1    61.0
  89   17:40   73.1    14    9.5   276     16.3   999.0    0.00       0    61.0
  89   17:50   72.0    14    6.8   283     11.3   999.0    0.00       0    61.1
  89   18:00   70.9    15    6.3   306     10.7   999.0    0.00       0    61.2
  89   18:10   69.7    16    6.4   298     12.5   999.0    0.00       0    61.3
  89   18:20   69.9    16    8.4   308     16.9   999.0    0.00       0    61.3
  89   18:30   69.7    16    7.8   305     12.1   999.0    0.00       0    61.4
  89   18:40   70.6    16   11.6   298     16.9   999.0    0.00       0    61.5
  89   18:50   70.5    16    9.3   299     15.7   999.0    0.00       0    61.5
  89   19:00   69.2    17    7.5   306     11.9   999.0    0.00       0    61.6
  89   19:10   67.4    19    5.0   308      8.2   999.0    0.00       0    61.6
  89   19:20   65.6    21    4.3   311      5.9   999.0    0.00       0    61.7
  89   19:30   66.2    20    4.4   326      8.6   999.0    0.00       0    61.8
  89   19:40   65.5    20    4.5   304      6.3   999.0    0.00       0    61.8
  89   19:50   62.6    23    5.3   296      9.3   999.0    0.00       0    61.8
  89   20:00   65.6    21    7.1   294     10.1   999.0    0.00       0    61.9
  89   20:10   65.8    21    6.6   294      9.7   999.0    0.00       0    61.9
  89   20:20   64.8    23    6.7   301      9.5   999.0    0.00       0    62.0
  89   20:30   62.8    25    4.8   308      8.1   999.0    0.00       0    62.0
  89   20:40   62.3    26    4.0   313      6.8   999.0    0.00       0    62.0
  89   20:50   61.6    27    3.2   322      5.1   999.0    0.00       0    62.0
  89   21:00   61.7    27    2.8   329      4.1   999.0    0.00       0    62.1
  89   21:10   62.3    26    2.9   333      4.6   999.0    0.00       0    62.1
  89   21:20   61.8    26    1.9   349      4.3   999.0    0.00       0    62.1
  89   21:30   60.9    27    1.9   322      7.9   999.0    0.00       0    62.1
  89   21:40   63.4    26    6.4   305     14.1   999.0    0.00       0    62.2
  89   21:50   62.6    27    2.6   308      5.9   999.0    0.00       0    62.2
  89   22:00   60.0    28    1.9   252      4.1   999.0    0.00       0    62.2
  89   22:10   58.0    29    2.0   253      2.8   999.0    0.00       0    62.2
  89   22:20   56.7    30    2.4   260      3.8   999.0    0.00       0    62.2
  89   22:30   56.3    31    2.7   309      4.2   999.0    0.00       0    62.2
  89   22:40   57.9    30    2.2   325      3.8   999.0    0.00       0    62.2
  89   22:50   56.2    32    1.3   354      3.1   999.0    0.00       0    62.2
  89   23:00   54.1    34    1.4   255      2.4   999.0    0.00       0    62.2
  89   23:10   54.1    34    1.4   256      2.2   999.0    0.00       0    62.2
  89   23:20   54.4    33    1.8   249      3.0   999.0    0.00       0    62.2
  89   23:30   52.2    33    2.3   245      3.5   999.0    0.00       0    62.2
  89   23:40   52.0    35    1.6   257      2.6   999.0    0.00       0    62.2
  89   23:50   51.8    34    1.8   251      3.1   999.0    0.00       0    62.2
  90    0:00   50.8    34    1.4   252      1.9   999.0    0.00       0    62.2
  90    0:10   49.9    34    1.0   254      2.4   999.0    0.00       0    62.2
  90    0:20   49.0    35    1.5   250      2.4   999.0    0.00       0    62.2
  90    0:30   49.4    34    2.5   279      3.6   999.0    0.00       0    62.2
  90    0:40   49.7    34    0.7   333      2.4   999.0    0.00       0    62.1
  90    0:50   49.5    35    1.3    62      4.8   999.0    0.00       0    62.1
  90    1:00   48.2    37    1.1    84      2.8   999.0    0.00       0    62.1
  90    1:10   47.6    37    0.3    83      1.7   999.0    0.00       0    62.1
  90    1:20   45.6    40    0.0    83      0.6   999.0    0.00       0    62.1
  90    1:30   46.4    41    1.3    74      3.4   999.0    0.00       0    62.0
  90    1:40   48.0    38    0.5    70      2.3   999.0    0.00       0    62.0
  90    1:50   47.9    38    0.6    70      2.6   999.0    0.00       0    62.0
  90    2:00   46.0    37    1.7   111      6.0   999.0    0.00       0    62.0
  90    2:10   43.9    39    3.2   107      5.2   999.0    0.00       0    61.9
  90    2:20   43.1    44    2.6   102      3.8   999.0    0.00       0    61.9
  90    2:30   43.5    46    1.6   106      2.7   999.0    0.00       0    61.9
  90    2:40   45.6    44    1.6   113      3.1   999.0    0.00       0    61.8
  90    2:50   47.0    43    2.3    39      4.9   999.0    0.00       0    61.8
  90    3:00   47.4    42    1.4   324      5.0   999.0    0.00       0    61.8
  90    3:10   47.2    42    2.0   332      5.6   999.0    0.00       0    61.8
  90    3:20   46.5    44    2.7   337      6.1   999.0    0.00       0    61.7
  90    3:30   46.1    42    4.1   342      6.5   999.0    0.00       0    61.7
  90    3:40   47.0    41    4.7   342      6.8   999.0    0.00       0    61.6
  90    3:50   46.2    42    3.3    43      5.6   999.0    0.00       0    61.6
  90    4:00   46.2    43    1.9    25      4.2   999.0    0.00       0    61.6
  90    4:10   48.9    38    2.2    27      4.1   999.0    0.00       0    61.5
  90    4:20   49.7    37    2.8   345      9.2   999.0    0.00       0    61.5
  90    4:30   47.5    40    1.9   342      5.0   999.0    0.00       1    61.5
  90    4:40   45.3    40    2.9   107      4.9   999.0    0.00       2    61.4
  90    4:50   45.8    41    2.5   233      7.3   999.0    0.00       5    61.4
  90    5:00   43.7    44    2.0   274      4.2   999.0    0.00      12    61.3
  90    5:10   43.0    43    2.2   244      3.3   999.0    0.00      25    61.3
  90    5:20   43.4    42    0.5   228      2.5   999.0    0.00      35    61.2
  90    5:30   43.7    42    2.1   221      3.5   999.0    0.00      46    61.2
  90    5:40   45.8    40    3.1   222      4.8   999.0    0.00      60    61.2
  90    5:50   47.2    39    1.8   189      3.3   999.0    0.00      62    61.1
  90    6:00   47.7    38    2.0   106      5.6   999.0    0.00      60    61.1
  90    6:10   47.3    41    3.5    74      5.8   999.0    0.00      58    61.1
  90    6:20   46.8    43    3.3    75      5.3   999.0    0.00      83    61.0
  90    6:30   48.4    40    3.1    87      5.1   999.0    0.00     247    61.0
  90    6:40   50.9    38    2.5    56      5.6   999.0    0.00     194    60.9
  90    6:50   52.8    35    2.9    37      6.3   999.0    0.00     409    60.9
  90    7:00   57.1    28    6.4    92      8.0   999.0    0.00     459    60.8
  90    7:10   60.0    25    7.3   109      9.2   999.0    0.00     491    60.8
  90    7:20   61.7    22    7.2   102      9.4   999.0    0.00     525    60.7
  90    7:30   63.4    18    7.0   102      9.7   999.0    0.00     556    60.7
  90    7:40   64.7    16    5.2    96      7.9   999.0    0.00     587    60.7
  90    7:50   66.3    14    4.6    85      8.3   999.0    0.00     617    60.6
  90    8:00   66.6    13    4.3   106      9.8   999.0    0.00     644    60.6
  90    8:10   68.3    13    4.1   148     11.7   999.0    0.00     673    60.5
  90    8:20   68.2    12    3.5   163      6.4   999.0    0.00     703    60.5
  90    8:30   69.5    11    9.1   245     20.6   999.0    0.00     732    60.5
  90    8:40   71.5     9   14.1   241     20.6   999.0    0.00     762    60.4
  90    8:50   71.7     9   14.8   248     23.2   999.0    0.00     784    60.4
  90    9:00   72.2     8   17.5   246     23.2   999.0    0.00     807    60.4
  90    9:10   72.9     7   16.7   256     25.5   999.0    0.00     831    60.4
  90    9:20   73.0     7   20.3   262     28.8   999.0    0.00     851    60.3
  90    9:30   73.2     6   19.0   252     28.1   999.0    0.00     875    60.3
  90    9:40   73.0     6   18.9   260     29.8   999.0    0.00     895    60.3
  90    9:50   73.7     6   16.6   264     23.9   999.0    0.00     911    60.2
  90   10:00   73.9     6   16.9   253     24.8   999.0    0.00     921    60.2
  90   10:10   74.3     6   18.1   254     25.0   999.0    0.00     936    60.2
  90   10:20   73.8     6   15.6   252     25.5   999.0    0.00     945    60.2
  90   10:30   73.8     6   15.4   243     23.1   999.0    0.00     946    60.2
  90   10:40   74.6     6   18.2   233     25.9   999.0    0.00     958    60.2
  90   10:50   74.0     6   15.5   240     30.6   999.0    0.00     955    60.2
  90   11:00   74.3     5   15.0   261     23.7   999.0    0.00     952    60.2
  90   11:10   75.3     6   14.6   264     21.2   999.0    0.00     945    60.2
  90   11:20   75.2     5   17.0   277     27.7   999.0    0.00     942    60.2
  90   11:30   74.9     5   19.2   278     35.5   999.0    0.00     935    60.2
  90   11:40   75.0     5   19.7   272     34.8   999.0    0.00     943    60.2
  90   11:50   74.8     5   20.4   277     31.8   999.0    0.00     937    60.2
  90   12:00   74.7     6   19.2   278     32.7   999.0    0.00     926    60.2
  90   12:10   73.7     6   18.6   287     31.2   999.0    0.00     909    60.2
  90   12:20   73.5     7   18.3   278     30.6   999.0    0.00     892    60.3
  90   12:30   73.6     7   18.2   291     29.9   999.0    0.00     872    60.3
  90   12:40   72.4     8   19.0   294     31.1   999.0    0.00     856    60.4
  90   12:50   73.0     8   18.8   295     29.2   999.0    0.00     839    60.4
  90   13:00   72.3     7   19.5   291     31.8   999.0    0.00     816    60.4
  90   13:10   72.3     7   20.1   293     33.6   999.0    0.00     797    60.5
  90   13:20   72.3     7   21.6   293     31.7   999.0    0.00     780    60.5
  90   13:30   72.2     6   18.3   293     29.2   999.0    0.00     756    60.6
  90   13:40   71.8     6   19.8   291     29.4   999.0    0.00     723    60.6

Return to Frey Ranch - Fallon, Nevada graphs page.


Western Regional Climate Center,wrcc@dri.edu